Latest Weather Observations for Lucinda

IDQ60801

Issued at 6:32 am EST Sunday 1 May 2016 (issued every 30 minutes, with the page automatically refreshed every 10 minutes)

About weather observations | Map of weather stations | Latest weather observations for QLD | Other Formats
Station Details ID: 032141 Name: LUCINDA POINT Lat: -18.52 Lon: 146.39 Height: 10.0 m
Data from the previous 72 hours. | See also: Recent months at Lucinda
Date/Time
EST
Temp
°C
App
Temp
°C
Dew
Point
Rel
Hum
%
Delta-T
°C
Wind Press
QNH
hPa
Press
MSL
hPa
Rain
since 9 am
mm
Dir
 
Spd
km/h
Gust
km/h
Spd
kts
Gust
kts
01/06:30am 26.2 29.1 23.1 83 2.1 SSE 13 20 7 11 1016.0 1016.0 0.0
01/06:00am 26.2 29.6 23.3 84 2.0 SSE 11 19 6 10 1015.7 1015.7 0.0
01/05:30am 26.3 28.6 23.4 84 2.0 SE 17 24 9 13 1015.4 1015.3 0.0
01/05:00am 26.2 28.3 23.1 83 2.1 SE 17 26 9 14 1015.1 1015.0 0.0
01/04:30am 26.2 28.5 23.5 85 1.8 ESE 17 26 9 14 1014.9 1014.8 0.0
01/04:00am 26.1 28.8 23.4 85 1.8 SE 15 22 8 12 1014.8 1014.7 0.0
01/03:30am 26.1 29.1 23.4 85 1.8 SE 13 20 7 11 1014.8 1014.7 0.0
01/03:00am 26.2 28.8 23.3 84 2.0 SE 15 24 8 13 1014.9 1014.8 0.0
01/02:30am 26.2 28.6 23.7 86 1.7 SE 17 22 9 12 1015.0 1014.9 0.0
01/02:00am 26.1 29.6 23.6 86 1.7 SE 11 20 6 11 1015.1 1015.0 0.0
01/01:30am 26.2 29.8 23.7 86 1.7 SSE 11 20 6 11 1015.3 1015.2 0.0
01/01:00am 26.2 29.0 23.7 86 1.7 S 15 19 8 10 1015.6 1015.6 0.0
01/12:30am 26.2 28.5 23.5 85 1.8 S 17 20 9 11 1015.8 1015.8 0.0
01/12:00am 26.2 29.8 23.7 86 1.7 S 11 17 6 9 1016.0 1016.0 0.0
 
Date/Time
EST
Temp
°C
App
Temp
°C
Dew
Point
Rel
Hum
%
Delta-T
°C
Wind Press
QNH
hPa
Press
MSL
hPa
Rain
since 9 am
mm
Dir
 
Spd
km/h
Gust
km/h
Spd
kts
Gust
kts
30/11:30pm 26.2 30.5 23.7 86 1.7 SSE 7 13 4 7 1016.3 1016.3 0.0
30/11:00pm 26.3 30.2 23.6 85 1.8 S 9 13 5 7 1016.3 1016.3 0.0
30/10:30pm 26.4 30.0 23.7 85 1.9 S 11 17 6 9 1016.3 1016.3 0.0
30/10:00pm 26.3 30.2 23.6 85 1.8 S 9 15 5 8 1016.2 1016.2 0.0
30/09:30pm 26.4 30.1 23.9 86 1.7 SE 11 20 6 11 1016.1 1016.1 0.0
30/09:00pm 26.4 30.4 23.7 85 1.8 SSE 9 17 5 9 1016.1 1016.1 0.0
30/08:30pm 26.4 29.9 23.5 84 2.0 SE 11 19 6 10 1015.9 1015.9 0.0
30/08:00pm 26.4 30.4 23.7 85 1.8 SSE 9 15 5 8 1015.7 1015.7 0.0
30/07:30pm 26.4 30.0 23.7 85 1.9 SE 11 19 6 10 1015.5 1015.4 0.0
30/07:00pm 26.3 29.9 23.8 86 1.7 SSE 11 20 6 11 1015.0 1014.9 0.0
30/06:30pm 26.3 29.8 23.6 85 1.8 SSE 11 17 6 9 1014.8 1014.7 0.0
30/06:00pm 26.4 30.0 23.7 85 1.8 SE 11 26 6 14 1014.5 1014.4 0.0
30/05:30pm 26.4 29.9 23.5 84 2.0 SSE 11 19 6 10 1014.5 1014.4 0.0
30/05:00pm 26.5 30.0 23.6 84 2.0 SSE 11 15 6 8 1014.4 1014.3 0.0
30/04:30pm 26.7 29.6 23.2 81 2.4 SE 13 22 7 12 1014.2 1014.1 0.0
30/04:00pm 26.9 30.6 23.2 80 2.5 S 9 13 5 7 1014.1 1014.0 0.0
30/03:30pm 26.6 29.2 23.3 82 2.3 S 15 19 8 10 1013.9 1013.8 0.0
30/03:00pm 26.4 28.1 23.1 82 2.2 S 19 20 10 11 1014.0 1013.9 0.0
30/02:30pm 26.4 28.8 22.9 81 2.4 S 15 20 8 11 1014.0 1013.9 0.0
30/02:00pm 27.0 30.5 22.8 78 2.8 S 9 17 5 9 1014.2 1014.1 0.0
30/01:30pm 26.2 27.3 23.1 83 2.1 S 22 24 12 13 1014.6 1014.5 0.0
30/01:00pm 26.2 27.6 22.9 82 2.2 S 20 24 11 13 1015.0 1014.9 0.0
30/12:30pm 26.0 27.3 22.7 82 2.2 S 20 26 11 14 1015.6 1015.6 0.0
30/12:00pm 25.8 27.1 22.7 83 2.1 S 20 24 11 13 1016.1 1016.1 0.0
30/11:30am 25.9 27.0 23.0 84 2.0 S 22 26 12 14 1016.5 1016.5 0.0
30/11:00am 25.9 26.6 23.0 84 2.0 S 24 28 13 15 1016.9 1016.9 0.0
30/10:30am 25.9 26.1 22.8 83 2.1 S 26 30 14 16 1017.2 1017.2 0.0
30/10:00am 25.9 26.5 22.8 83 2.1 S 24 28 13 15 1017.2 1017.2 0.0
30/09:30am 26.2 27.8 22.9 82 2.2 S 19 24 10 13 1017.2 1017.2 0.0
30/09:00am 25.9 27.4 23.0 84 2.0 S 20 24 11 13 1017.1 1017.1 0.2
30/08:30am 25.9 27.5 22.8 83 2.1 S 19 20 10 11 1016.9 1016.9 0.2
30/08:00am 26.0 28.1 23.1 84 2.0 S 17 24 9 13 1016.7 1016.7 0.2
30/07:30am 25.9 28.6 22.8 83 2.1 S 13 20 7 11 1016.6 1016.6 0.2
30/07:00am 25.8 28.4 22.7 83 2.1 S 13 20 7 11 1016.2 1016.2 0.2
30/06:30am 25.8 28.7 23.1 85 1.8 S 13 19 7 10 1016.0 1016.0 0.2
30/06:00am 25.8 27.9 23.1 85 1.8 S 17 24 9 13 1015.7 1015.7 0.2
30/05:30am 26.1 28.0 22.8 82 2.2 SE 17 26 9 14 1015.3 1015.2 0.2
30/05:00am 26.2 28.1 22.7 81 2.4 SE 17 28 9 15 1015.1 1015.0 0.2
30/04:30am 26.2 27.5 22.7 81 2.4 SE 20 32 11 17 1014.9 1014.8 0.2
30/04:00am 26.2 27.6 22.9 82 2.2 SE 20 32 11 17 1014.8 1014.7 0.2
30/03:30am 26.1 27.0 22.6 81 2.4 ESE 22 35 12 19 1014.8 1014.7 0.2
30/03:00am 26.1 27.7 22.8 82 2.2 SE 19 30 10 16 1015.1 1015.0 0.2
30/02:30am 26.1 27.6 23.0 83 2.1 SE 20 35 11 19 1015.3 1015.2 0.2
30/02:00am 26.2 27.7 23.1 83 2.1 SE 20 32 11 17 1015.5 1015.4 0.2
30/01:30am 26.2 27.9 23.1 83 2.1 ESE 19 28 10 15 1015.8 1015.8 0.2
30/01:00am 26.2 28.2 22.9 82 2.2 SE 17 28 9 15 1015.9 1015.9 0.2
30/12:30am 26.2 28.2 22.9 82 2.2 SE 17 28 9 15 1016.3 1016.3 0.2
30/12:00am 26.2 27.6 22.9 82 2.2 SE 20 30 11 16 1016.5 1016.5 0.2
 
Date/Time
EST
Temp
°C
App
Temp
°C
Dew
Point
Rel
Hum
%
Delta-T
°C
Wind Press
QNH
hPa
Press
MSL
hPa
Rain
since 9 am
mm
Dir
 
Spd
km/h
Gust
km/h
Spd
kts
Gust
kts
29/11:30pm 26.3 28.3 23.0 82 2.2 SE 17 30 9 16 1016.8 1016.8 0.2
29/11:00pm 26.4 28.0 22.9 81 2.4 SE 19 28 10 15 1016.9 1016.9 0.2
29/10:30pm 26.4 28.1 23.1 82 2.2 SE 19 30 10 16 1016.9 1016.9 0.2
29/10:00pm 26.4 27.8 22.9 81 2.4 SE 20 32 11 17 1016.9 1016.9 0.2
29/09:30pm 26.4 27.9 22.7 80 2.5 SE 19 28 10 15 1016.8 1016.8 0.2
29/09:00pm 26.5 28.1 23.2 82 2.2 SE 20 30 11 16 1016.7 1016.7 0.2
29/08:30pm 26.5 27.6 23.0 81 2.4 SE 22 33 12 18 1016.5 1016.5 0.2
29/08:00pm 26.5 28.0 23.0 81 2.4 SE 20 35 11 19 1016.3 1016.3 0.2
29/07:30pm 26.5 27.6 23.0 81 2.4 SE 22 32 12 17 1015.8 1015.8 0.2
29/07:00pm 26.5 28.0 23.0 81 2.4 SE 20 33 11 18 1015.4 1015.3 0.2
29/06:30pm 26.3 28.7 23.6 85 1.8 SE 17 26 9 14 1015.2 1015.1 0.2
29/06:00pm 25.9 27.5 23.2 85 1.8 SE 20 30 11 16 1014.9 1014.8 0.2
29/05:30pm 26.2 28.2 22.9 82 2.2 ESE 17 26 9 14 1014.6 1014.5 0.2
29/05:00pm 26.4 28.1 23.1 82 2.2 SE 19 30 10 16 1014.2 1014.1 0.2
29/04:30pm 25.7 24.8 22.8 84 2.0 ESE 32 41 17 22 1014.0 1013.9 0.2
29/04:00pm 26.5 27.8 23.4 83 2.1 SE 22 37 12 20 1013.7 1013.6 0.2
29/03:30pm 26.5 28.2 23.4 83 2.1 SE 20 33 11 18 1013.6 1013.5 0.2
29/03:00pm 26.5 28.3 23.6 84 2.0 SE 20 33 11 18 1013.5 1013.4 0.2
29/02:30pm 26.4 28.6 23.3 83 2.1 SE 17 33 9 18 1013.6 1013.5 0.2
29/02:00pm 26.3 28.8 23.2 83 2.1 SSE 15 28 8 15 1013.9 1013.8 0.2
29/01:30pm 26.1 28.8 23.4 85 1.8 S 15 22 8 12 1014.2 1014.1 0.2
29/01:00pm 25.1 25.2 23.2 89 1.3 S 28 33 15 18 1014.8 1014.7 0.2
29/12:30pm 25.1 24.9 22.8 87 1.6 S 28 37 15 20 1015.2 1015.1 0.2
29/12:00pm 25.2 24.6 22.7 86 1.7 S 30 35 16 19 1015.6 1015.6 0.2
29/11:30am 24.9 24.7 22.8 88 1.4 S 28 32 15 17 1016.1 1016.1 0.2
29/11:00am 24.9 24.1 23.0 89 1.3 S 32 33 17 18 1016.5 1016.5 0.2
29/10:30am 24.6 23.6 22.7 89 1.3 S 32 37 17 20 1016.8 1016.8 0.2
29/10:00am 24.5 24.0 22.8 90 1.1 S 30 35 16 19 1017.1 1017.1 0.0
29/09:30am 24.7 24.2 22.9 90 1.2 S 30 35 16 19 1017.1 1017.1 0.0
29/09:00am 25.3 25.1 22.8 86 1.7 S 28 35 15 19 1016.9 1016.9 0.6
29/08:30am 25.1 26.2 23.0 88 1.4 S 22 32 12 17 1016.6 1016.6 0.6
29/08:00am 24.3 23.8 22.9 92 0.9 S 30 35 16 19 1016.4 1016.4 0.6
29/07:30am 25.1 27.0 22.8 87 1.6 SSE 17 30 9 16 1016.0 1016.0 0.6
29/07:00am 25.2 27.7 23.1 88 1.4 S 15 22 8 12 1015.7 1015.7 0.6
29/06:30am 24.6 26.2 23.2 92 0.9 S 20 30 11 16 1015.5 1015.4 0.6
29/06:00am 24.8 26.4 22.9 89 1.3 SSE 19 30 10 16 1015.2 1015.1 0.6
29/05:30am 24.3 25.8 23.1 93 0.8 S 20 28 11 15 1014.8 1014.7 0.6
29/05:00am 24.4 26.7 22.8 91 1.1 S 15 20 8 11 1014.7 1014.6 0.6
29/04:30am 25.0 25.5 22.7 87 1.5 S 24 35 13 19 1014.6 1014.5 0.2
29/04:00am 25.0 26.1 23.1 89 1.3 S 22 33 12 18 1014.5 1014.4 0.2
29/03:30am 24.8 25.9 23.0 90 1.2 S 22 28 12 15 1014.8 1014.7 0.0
29/03:00am 24.8 26.0 22.5 87 1.5 SE 20 33 11 18 1014.7 1014.6 0.0
29/02:30am 25.5 27.5 23.0 86 1.7 SSE 17 24 9 13 1014.8 1014.7 0.0
29/02:00am 25.5 26.9 22.6 84 2.0 SSE 19 30 10 16 1014.9 1014.8 0.0
29/01:30am 25.7 27.2 23.0 85 1.8 SE 20 37 11 20 1015.3 1015.2 0.0
29/01:00am 25.7 27.3 22.8 84 2.0 SE 19 35 10 19 1015.4 1015.3 0.0
29/12:30am 25.7 26.3 22.8 84 2.0 SE 24 41 13 22 1015.6 1015.6 0.0
29/12:00am 25.8 26.9 23.1 85 1.8 SE 22 33 12 18 1015.9 1015.9 0.0
 
Date/Time
EST
Temp
°C
App
Temp
°C
Dew
Point
Rel
Hum
%
Delta-T
°C
Wind Press
QNH
hPa
Press
MSL
hPa
Rain
since 9 am
mm
Dir
 
Spd
km/h
Gust
km/h
Spd
kts
Gust
kts
28/11:30pm 25.9 26.7 23.2 85 1.8 SE 24 43 13 23 1016.0 1016.0 0.0
28/11:00pm 26.1 26.9 23.2 84 2.0 SE 24 37 13 20 1016.2 1016.2 0.0
28/10:30pm 26.1 27.4 23.4 85 1.8 SE 22 39 12 21 1016.2 1016.2 0.0
28/10:00pm 26.4 28.3 23.7 85 1.8 SE 20 32 11 17 1016.3 1016.3 0.0
28/09:30pm 26.4 28.2 23.3 83 2.1 SE 19 30 10 16 1016.4 1016.4 0.0
28/09:00pm 26.4 28.2 22.5 79 2.6 SE 17 28 9 15 1016.2 1016.2 0.0
28/08:30pm 26.5 28.1 23.2 82 2.2 SE 20 30 11 16 1016.1 1016.1 0.0
28/08:00pm 26.5 27.7 23.2 82 2.2 SE 22 32 12 17 1015.7 1015.7 0.0
28/07:30pm 26.1 28.6 23.2 84 2.0 SE 15 24 8 13 1015.5 1015.4 0.0
28/07:00pm 26.1 28.3 23.2 84 2.0 SE 17 26 9 14 1015.0 1014.9 0.0
28/06:30pm 26.1 28.1 23.0 83 2.1 SE 17 28 9 15 1014.7 1014.6 0.0
28/06:00pm 26.1 27.8 23.0 83 2.1 SE 19 28 10 15 1014.5 1014.4 0.0
28/05:30pm 26.4 27.6 22.5 79 2.6 SE 20 32 11 17 1014.3 1014.2 0.0
28/05:00pm 26.9 28.8 22.7 78 2.8 SE 17 30 9 16 1014.1 1014.0 0.0
28/04:30pm 26.6 27.3 21.6 74 3.3 SE 20 30 11 16 1013.9 1013.8 0.0
28/04:00pm 26.9 27.8 21.9 74 3.3 SE 20 30 11 16 1013.7 1013.6 0.0
28/03:30pm 26.9 28.0 21.2 71 3.8 SE 17 28 9 15 1013.7 1013.6 0.0
28/03:00pm 26.9 27.6 21.2 71 3.8 SE 19 32 10 17 1013.8 1013.7 0.0
28/02:30pm 26.9 28.2 21.6 72 3.5 SE 17 28 9 15 1013.8 1013.7 0.0
28/02:00pm 26.9 28.0 21.9 74 3.3 SE 19 30 10 16 1013.9 1013.8 0.0
28/01:30pm 26.6 27.8 21.4 73 3.5 SE 17 28 9 15 1014.0 1013.9 0.0
28/01:00pm 26.6 27.3 21.6 74 3.3 SE 20 30 11 16 1014.3 1014.2 0.0
28/12:30pm 26.4 27.3 21.6 75 3.2 SE 19 32 10 17 1014.7 1014.6 0.0
28/12:00pm 26.3 26.8 21.1 73 3.4 SE 20 32 11 17 1015.1 1015.0 0.0
28/11:30am 26.4 27.1 21.6 75 3.2 SE 20 32 11 17 1015.3 1015.2 0.0
28/11:00am 26.5 27.5 21.7 75 3.2 SE 19 30 10 16 1015.6 1015.6 0.0
28/10:30am 25.4 25.3 21.5 79 2.6 S 24 30 13 16 1015.9 1015.9 0.0
28/10:00am 25.6 26.9 21.7 79 2.6 S 17 26 9 14 1016.1 1016.1 0.0
28/09:30am 24.9 24.7 21.2 80 2.4 S 24 33 13 18 1015.9 1015.9 0.0
28/09:00am 25.2 25.8 21.3 79 2.6 S 20 28 11 15 1015.7 1015.7 5.4
28/08:30am 25.0 25.8 21.3 80 2.4 S 19 26 10 14 1015.3 1015.2 5.4
28/08:00am 24.8 23.9 21.5 82 2.2 S 28 39 15 21 1015.0 1014.9 5.4
28/07:30am 24.7 24.8 21.2 81 2.3 S 22 37 12 20 1014.7 1014.6 5.4
28/07:00am 24.7 25.3 21.4 82 2.2 S 20 32 11 17 1014.5 1014.4 5.4

Other Formats:

Comma delimited format used in spreadsheet applications
http://www.bom.gov.au/fwo/IDQ60801/IDQ60801.94295.axf

JavaScript Object Notation format (JSON) in row-major order
http://www.bom.gov.au/fwo/IDQ60801/IDQ60801.94295.json